Strona główna
METAR-TAF:

METAR-TAF

Lotnisko :

Port lotniczy Sveg

Sveg, Szwecja

Szerokość geograficzna: 62-02-52N, Długość geograficzna: 014-25-22E, wysokość: 359 m

Aktualna obserwacja pogody

Raport powstał 23 minut temu, godzina 03:20 UTC
Wiatr 14 kt od zachód
Temperatura -1°C
Wilgotność 80%
Ciśnienie 1009 hPa
Widzialność 10 km lub więcej

METAR: ESND 090320Z AUTO 26014KT 9999 NCD M01/M04 Q1009

czas: 05:43 (03:43 UTC)


TAF: brakujący

Obserwacja i prognoza pogody dla ponad 4000 lotnisk (raport METAR i TAF).

Dostępne stacje oznaczono żółtymi i czerwonymi punktami na mapie.

Najedź kursorem aby zobaczyć nazwę stacji.

Kliknij aby zobaczyć obserwacje i prognozy pogody.

Aby zmienić mapę: kliknij na zielony przycisk z czarnym krzyżykiem, aby powiększyć; na zielony przycisk z myślnikiem, aby pomniejszyć; na zielone strzałki, aby przejść do map sąsiednich.


METAR-TAF: